KCGZ/CGZ METAR and TAF weather

Enter ICAO airport designator
Station Type Date Time Source
KCGZ METAR 2021/09/28 02:56 UTC NOAA

KCGZ 280256Z AUTO 03004KT 10SM SCT120 26/15 A2990 RMK AO2 SLP114 T02560150 55001


Station Type Date Time Source
KCGZ Decoded METAR 2021/09/28 02:56 UTC NOAA

Casa Grande, Casa Grande Municipal Airport, AZ, United States (KCGZ) 32-57N 111-46W
Sep 27, 2021 - 10:56 PM EDT / 2021.09.28 0256 UTC
Wind: from the NNE (030 degrees) at 5 MPH (4 KT):0
Visibility: 10 mile(s):0
Sky conditions: partly cloudy
Temperature: 78.1 F (25.6 C)
Dew Point: 59.0 F (15.0 C)
Relative Humidity: 51%
Pressure (altimeter): 29.9 in. Hg (1012 hPa)
Pressure tendency: 0.00 inches (0.1 hPa) lower than three hours ago
ob: KCGZ 280256Z AUTO 03004KT 10SM SCT120 26/15 A2990 RMK AO2 SLP114 T02560150 55001
cycle: 3

Station Type Date Time Source
KCGZ TAF UTC NOAA

Error!

Example: see airport list